LZKZ/KSC METAR and TAF weather

Enter ICAO airport designator
Station Type Date Time Source
LZKZ METAR 2022/12/04 12:00 UTC NOAA

LZKZ 041200Z 06004KT CAVOK 09/03 Q1023 NOSIG


Station Type Date Time Source
LZKZ Decoded METAR 2022/12/04 12:00 UTC NOAA

Kosice, Barca, Slovakia (LZKZ) 48-39-47N 021-14-28E
Dec 04, 2022 - 07:00 AM EST / 2022.12.04 1200 UTC
Wind: from the ENE (060 degrees) at 5 MPH (4 KT):0
Visibility: greater than 7 mile(s):0
Temperature: 48 F (9 C)
Dew Point: 37 F (3 C)
Relative Humidity: 66%
Pressure (altimeter): 30.21 in. Hg (1023 hPa)
ob: LZKZ 041200Z 06004KT CAVOK 09/03 Q1023 NOSIG
cycle: 12

Station Type Date Time Source
LZKZ TAF 2022/12/04 12:12 UTC NOAA

TAF LZKZ 041115Z 0412/0512 36004KT CAVOK
BECMG 0418/0420 30003KT 9999 BKN033
TEMPO 0500/0510 -RASN FEW010 BKN025

Example: see airport list